sensor_id;sensor_type;location;lat;lon;timestamp;pressure;altitude;pressure_sealevel;temperature;humidity
77106;BME280;66057;54.718;18.426;2023-04-25T00:01:49;100008.72;;;10.76;90.48
77106;BME280;66057;54.718;18.426;2023-04-25T00:04:18;100005.13;;;10.69;90.28
77106;BME280;66057;54.718;18.426;2023-04-25T00:06:44;100001.63;;;10.67;90.49
77106;BME280;66057;54.718;18.426;2023-04-25T00:09:13;100000.69;;;10.64;89.80
77106;BME280;66057;54.718;18.426;2023-04-25T00:11:41;100004.84;;;10.60;89.84
77106;BME280;66057;54.718;18.426;2023-04-25T00:14:06;100003.94;;;10.58;90.31
77106;BME280;66057;54.718;18.426;2023-04-25T00:16:34;99993.63;;;10.57;90.00
77106;BME280;66057;54.718;18.426;2023-04-25T00:19:02;99991.88;;;10.56;90.37
77106;BME280;66057;54.718;18.426;2023-04-25T00:21:29;99998.88;;;10.60;90.87
77106;BME280;66057;54.718;18.426;2023-04-25T00:23:58;99987.78;;;10.62;91.13
77106;BME280;66057;54.718;18.426;2023-04-25T00:26:24;99981.19;;;10.72;92.06
77106;BME280;66057;54.718;18.426;2023-04-25T00:28:52;99978.63;;;10.72;91.87
77106;BME280;66057;54.718;18.426;2023-04-25T00:31:18;99977.00;;;10.75;92.05
77106;BME280;66057;54.718;18.426;2023-04-25T00:33:46;99971.75;;;10.71;91.92
77106;BME280;66057;54.718;18.426;2023-04-25T00:36:11;99981.25;;;10.73;91.28
77106;BME280;66057;54.718;18.426;2023-04-25T00:38:38;99983.56;;;10.64;91.74
77106;BME280;66057;54.718;18.426;2023-04-25T00:41:07;99983.69;;;10.69;90.93
77106;BME280;66057;54.718;18.426;2023-04-25T00:43:37;99978.69;;;10.75;91.03
77106;BME280;66057;54.718;18.426;2023-04-25T00:46:11;99989.84;;;10.75;90.98
77106;BME280;66057;54.718;18.426;2023-04-25T00:48:37;99978.69;;;10.75;91.56
77106;BME280;66057;54.718;18.426;2023-04-25T00:51:03;99982.06;;;10.72;90.64
77106;BME280;66057;54.718;18.426;2023-04-25T00:53:31;99983.78;;;10.72;90.20
77106;BME280;66057;54.718;18.426;2023-04-25T00:55:58;99977.69;;;10.68;90.82
77106;BME280;66057;54.718;18.426;2023-04-25T00:58:24;99976.00;;;10.69;90.64
77106;BME280;66057;54.718;18.426;2023-04-25T01:00:51;99981.00;;;10.64;90.84
77106;BME280;66057;54.718;18.426;2023-04-25T01:03:22;99983.56;;;10.64;90.76
77106;BME280;66057;54.718;18.426;2023-04-25T01:05:58;99986.28;;;10.69;91.23
77106;BME280;66057;54.718;18.426;2023-04-25T01:08:32;99991.28;;;10.64;91.36
77106;BME280;66057;54.718;18.426;2023-04-25T01:10:59;99987.09;;;10.68;91.05
77106;BME280;66057;54.718;18.426;2023-04-25T01:13:26;99985.47;;;10.71;91.22
77106;BME280;66057;54.718;18.426;2023-04-25T01:15:53;99980.38;;;10.73;91.18
77106;BME280;66057;54.718;18.426;2023-04-25T01:18:21;99977.88;;;10.76;90.79
77106;BME280;66057;54.718;18.426;2023-04-25T01:20:51;99980.38;;;10.73;91.13
77106;BME280;66057;54.718;18.426;2023-04-25T01:23:20;99979.56;;;10.75;92.07
77106;BME280;66057;54.718;18.426;2023-04-25T01:25:48;99979.56;;;10.74;90.92
77106;BME280;66057;54.718;18.426;2023-04-25T01:28:14;99976.94;;;10.72;91.48
77106;BME280;66057;54.718;18.426;2023-04-25T01:30:41;99986.41;;;10.75;91.17
77106;BME280;66057;54.718;18.426;2023-04-25T01:33:09;99979.63;;;10.77;91.23
77106;BME280;66057;54.718;18.426;2023-04-25T01:35:35;99981.44;;;10.81;91.48
77106;BME280;66057;54.718;18.426;2023-04-25T01:38:02;99984.91;;;10.81;91.24
77106;BME280;66057;54.718;18.426;2023-04-25T01:40:28;99989.22;;;10.82;91.75
77106;BME280;66057;54.718;18.426;2023-04-25T01:42:54;99983.13;;;10.79;91.16
77106;BME280;66057;54.718;18.426;2023-04-25T01:45:22;99984.78;;;10.77;91.08
77106;BME280;66057;54.718;18.426;2023-04-25T01:47:50;99977.00;;;10.75;91.13
77106;BME280;66057;54.718;18.426;2023-04-25T01:50:17;99988.09;;;10.74;90.31
77106;BME280;66057;54.718;18.426;2023-04-25T01:52:44;99994.06;;;10.72;90.48
77106;BME280;66057;54.718;18.426;2023-04-25T01:55:11;99995.69;;;10.70;91.13
77106;BME280;66057;54.718;18.426;2023-04-25T01:57:40;99994.94;;;10.72;90.41
77106;BME280;66057;54.718;18.426;2023-04-25T02:00:09;99987.22;;;10.72;90.72
77106;BME280;66057;54.718;18.426;2023-04-25T02:02:36;99999.19;;;10.72;91.29
77106;BME280;66057;54.718;18.426;2023-04-25T02:05:02;100000.00;;;10.71;91.02
77106;BME280;66057;54.718;18.426;2023-04-25T02:07:29;99999.13;;;10.69;90.65
77106;BME280;66057;54.718;18.426;2023-04-25T02:09:55;100004.16;;;10.66;90.59
77106;BME280;66057;54.718;18.426;2023-04-25T02:12:21;100002.31;;;10.62;90.22
77106;BME280;66057;54.718;18.426;2023-04-25T02:14:49;99999.69;;;10.59;90.15
77106;BME280;66057;54.718;18.426;2023-04-25T02:17:20;99997.00;;;10.56;90.46
77106;BME280;66057;54.718;18.426;2023-04-25T02:19:46;99996.94;;;10.53;89.92
77106;BME280;66057;54.718;18.426;2023-04-25T02:22:13;100009.84;;;10.54;90.01
77106;BME280;66057;54.718;18.426;2023-04-25T02:24:39;100002.94;;;10.53;89.54
77106;BME280;66057;54.718;18.426;2023-04-25T02:27:06;100006.22;;;10.47;90.25
77106;BME280;66057;54.718;18.426;2023-04-25T02:29:33;100004.50;;;10.48;90.81
77106;BME280;66057;54.718;18.426;2023-04-25T02:31:59;100013.16;;;10.50;90.65
77106;BME280;66057;54.718;18.426;2023-04-25T02:34:25;100013.84;;;10.44;90.65
77106;BME280;66057;54.718;18.426;2023-04-25T02:36:51;100009.59;;;10.46;90.48
77106;BME280;66057;54.718;18.426;2023-04-25T02:39:17;100016.56;;;10.50;91.14
77106;BME280;66057;54.718;18.426;2023-04-25T02:41:44;100020.06;;;10.53;91.83
77106;BME280;66057;54.718;18.426;2023-04-25T02:44:10;100019.25;;;10.54;92.34
77106;BME280;66057;54.718;18.426;2023-04-25T02:46:36;100036.97;;;10.46;92.91
77106;BME280;66057;54.718;18.426;2023-04-25T02:49:01;100033.69;;;10.22;91.29
77106;BME280;66057;54.718;18.426;2023-04-25T02:51:27;100039.78;;;9.98;91.11
77106;BME280;66057;54.718;18.426;2023-04-25T02:53:52;100033.78;;;9.71;89.72
77106;BME280;66057;54.718;18.426;2023-04-25T02:56:18;100040.88;;;9.53;89.75
77106;BME280;66057;54.718;18.426;2023-04-25T02:58:43;100042.78;;;9.33;89.29
77106;BME280;66057;54.718;18.426;2023-04-25T03:01:10;100046.66;;;9.22;89.79
77106;BME280;66057;54.718;18.426;2023-04-25T03:03:36;100036.19;;;9.16;89.54
77106;BME280;66057;54.718;18.426;2023-04-25T03:06:03;100036.09;;;9.13;89.49
77106;BME280;66057;54.718;18.426;2023-04-25T03:08:29;100050.44;;;9.08;89.07
77106;BME280;66057;54.718;18.426;2023-04-25T03:10:59;100043.47;;;9.04;89.34
77106;BME280;66057;54.718;18.426;2023-04-25T03:13:25;100045.78;;;8.98;89.30
77106;BME280;66057;54.718;18.426;2023-04-25T03:15:52;100045.63;;;8.93;89.15
77106;BME280;66057;54.718;18.426;2023-04-25T03:18:18;100043.84;;;8.91;89.01
77106;BME280;66057;54.718;18.426;2023-04-25T03:20:45;100045.53;;;8.90;89.33
77106;BME280;66057;54.718;18.426;2023-04-25T03:23:12;100044.44;;;8.84;89.37
77106;BME280;66057;54.718;18.426;2023-04-25T03:25:38;100049.47;;;8.81;89.49
77106;BME280;66057;54.718;18.426;2023-04-25T03:28:04;100048.47;;;8.77;88.71
77106;BME280;66057;54.718;18.426;2023-04-25T03:30:30;100049.22;;;8.74;89.44
77106;BME280;66057;54.718;18.426;2023-04-25T03:32:55;100044.81;;;8.70;89.10
77106;BME280;66057;54.718;18.426;2023-04-25T03:35:21;100040.50;;;8.69;89.37
77106;BME280;66057;54.718;18.426;2023-04-25T03:37:48;100039.53;;;8.66;89.44
77106;BME280;66057;54.718;18.426;2023-04-25T03:40:14;100036.84;;;8.63;89.31
77106;BME280;66057;54.718;18.426;2023-04-25T03:42:40;100045.38;;;8.63;89.71
77106;BME280;66057;54.718;18.426;2023-04-25T03:45:06;100053.91;;;8.62;89.77
77106;BME280;66057;54.718;18.426;2023-04-25T03:47:32;100056.47;;;8.62;90.11
77106;BME280;66057;54.718;18.426;2023-04-25T03:49:58;100061.63;;;8.64;90.55
77106;BME280;66057;54.718;18.426;2023-04-25T03:52:25;100060.66;;;8.60;89.58
77106;BME280;66057;54.718;18.426;2023-04-25T03:54:51;100065.78;;;8.60;90.69
77106;BME280;66057;54.718;18.426;2023-04-25T03:57:17;100064.03;;;8.59;90.40
77106;BME280;66057;54.718;18.426;2023-04-25T03:59:42;100066.56;;;8.58;90.41
77106;BME280;66057;54.718;18.426;2023-04-25T04:02:08;100064.09;;;8.61;90.33
77106;BME280;66057;54.718;18.426;2023-04-25T04:04:33;100067.53;;;8.61;90.13
77106;BME280;66057;54.718;18.426;2023-04-25T04:06:59;100057.38;;;8.64;90.68
77106;BME280;66057;54.718;18.426;2023-04-25T04:09:25;100069.28;;;8.62;90.67
77106;BME280;66057;54.718;18.426;2023-04-25T04:11:51;100065.72;;;8.59;90.65
77106;BME280;66057;54.718;18.426;2023-04-25T04:14:17;100065.78;;;8.60;90.72
77106;BME280;66057;54.718;18.426;2023-04-25T04:16:42;100082.09;;;8.62;90.64
77106;BME280;66057;54.718;18.426;2023-04-25T04:19:08;100074.50;;;8.65;91.18
77106;BME280;66057;54.718;18.426;2023-04-25T04:21:33;100077.94;;;8.66;90.48
77106;BME280;66057;54.718;18.426;2023-04-25T04:23:59;100071.94;;;8.65;90.95
77106;BME280;66057;54.718;18.426;2023-04-25T04:26:25;100075.28;;;8.63;90.63
77106;BME280;66057;54.718;18.426;2023-04-25T04:28:51;100076.19;;;8.65;90.83
77106;BME280;66057;54.718;18.426;2023-04-25T04:31:21;100079.56;;;8.64;90.40
77106;BME280;66057;54.718;18.426;2023-04-25T04:33:47;100087.41;;;8.68;90.61
77106;BME280;66057;54.718;18.426;2023-04-25T04:36:13;100085.56;;;8.64;90.87
77106;BME280;66057;54.718;18.426;2023-04-25T04:38:39;100083.88;;;8.65;90.85
77106;BME280;66057;54.718;18.426;2023-04-25T04:41:07;100089.94;;;8.67;90.97
77106;BME280;66057;54.718;18.426;2023-04-25T04:43:33;100092.53;;;8.68;90.84
77106;BME280;66057;54.718;18.426;2023-04-25T04:46:02;100096.00;;;8.69;90.99
77106;BME280;66057;54.718;18.426;2023-04-25T04:48:30;100089.13;;;8.68;90.82
77106;BME280;66057;54.718;18.426;2023-04-25T04:50:58;100095.19;;;8.70;91.05
77106;BME280;66057;54.718;18.426;2023-04-25T04:53:24;100096.00;;;8.69;90.91
77106;BME280;66057;54.718;18.426;2023-04-25T04:55:49;100106.94;;;8.65;91.03
77106;BME280;66057;54.718;18.426;2023-04-25T04:58:15;100101.94;;;8.68;90.36
77106;BME280;66057;54.718;18.426;2023-04-25T05:00:40;100102.78;;;8.68;91.07
77106;BME280;66057;54.718;18.426;2023-04-25T05:03:06;100100.84;;;8.61;91.32
77106;BME280;66057;54.718;18.426;2023-04-25T05:05:32;100105.16;;;8.62;91.55
77106;BME280;66057;54.718;18.426;2023-04-25T05:07:57;100102.53;;;8.61;91.08
77106;BME280;66057;54.718;18.426;2023-04-25T05:10:23;100095.78;;;8.63;91.03
77106;BME280;66057;54.718;18.426;2023-04-25T05:12:49;100101.81;;;8.65;91.43
77106;BME280;66057;54.718;18.426;2023-04-25T05:15:14;100104.38;;;8.65;90.91
77106;BME280;66057;54.718;18.426;2023-04-25T05:17:40;100099.84;;;8.58;91.43
77106;BME280;66057;54.718;18.426;2023-04-25T05:20:07;100104.28;;;8.62;91.15
77106;BME280;66057;54.718;18.426;2023-04-25T05:22:36;100105.25;;;8.65;91.12
77106;BME280;66057;54.718;18.426;2023-04-25T05:25:01;100113.47;;;8.57;90.21
77106;BME280;66057;54.718;18.426;2023-04-25T05:27:27;100115.84;;;8.52;89.92
77106;BME280;66057;54.718;18.426;2023-04-25T05:29:54;100117.44;;;8.49;91.04
77106;BME280;66057;54.718;18.426;2023-04-25T05:32:20;100125.69;;;8.42;90.92
77106;BME280;66057;54.718;18.426;2023-04-25T05:34:45;100123.06;;;8.40;90.51
77106;BME280;66057;54.718;18.426;2023-04-25T05:37:11;100132.41;;;8.40;91.24
77106;BME280;66057;54.718;18.426;2023-04-25T05:39:37;100134.06;;;8.38;90.64
77106;BME280;66057;54.718;18.426;2023-04-25T05:42:02;100131.63;;;8.41;90.68
77106;BME280;66057;54.718;18.426;2023-04-25T05:44:29;100129.81;;;8.38;90.69
77106;BME280;66057;54.718;18.426;2023-04-25T05:46:55;100132.31;;;8.37;91.00
77106;BME280;66057;54.718;18.426;2023-04-25T05:49:21;100126.44;;;8.39;91.05
77106;BME280;66057;54.718;18.426;2023-04-25T05:51:46;100129.63;;;8.34;90.65
77106;BME280;66057;54.718;18.426;2023-04-25T05:54:12;100126.72;;;8.26;89.79
77106;BME280;66057;54.718;18.426;2023-04-25T05:56:37;100135.09;;;8.22;88.94
77106;BME280;66057;54.718;18.426;2023-04-25T05:59:03;100127.44;;;8.22;88.80
77106;BME280;66057;54.718;18.426;2023-04-25T06:01:29;100130.31;;;8.09;89.13
77106;BME280;66057;54.718;18.426;2023-04-25T06:03:55;100138.78;;;8.08;89.02
77106;BME280;66057;54.718;18.426;2023-04-25T06:06:21;100142.75;;;8.00;89.38
77106;BME280;66057;54.718;18.426;2023-04-25T06:08:47;100133.38;;;8.00;89.64
77106;BME280;66057;54.718;18.426;2023-04-25T06:11:13;100134.88;;;7.95;89.86
77106;BME280;66057;54.718;18.426;2023-04-25T06:13:39;100142.66;;;7.98;89.83
77106;BME280;66057;54.718;18.426;2023-04-25T06:16:05;100144.94;;;7.91;89.70
77106;BME280;66057;54.718;18.426;2023-04-25T06:18:31;100144.78;;;7.87;89.35
77106;BME280;66057;54.718;18.426;2023-04-25T06:20:56;100156.69;;;7.87;89.23
77106;BME280;66057;54.718;18.426;2023-04-25T06:23:22;100148.28;;;7.89;89.73
77106;BME280;66057;54.718;18.426;2023-04-25T06:25:48;100152.66;;;7.92;89.34
77106;BME280;66057;54.718;18.426;2023-04-25T06:28:14;100154.41;;;7.93;89.75
77106;BME280;66057;54.718;18.426;2023-04-25T06:30:41;100147.59;;;7.94;89.94
77106;BME280;66057;54.718;18.426;2023-04-25T06:33:07;100150.34;;;7.98;89.92
77106;BME280;66057;54.718;18.426;2023-04-25T06:35:36;100151.91;;;7.95;90.45
77106;BME280;66057;54.718;18.426;2023-04-25T06:38:02;100148.66;;;7.99;90.23
77106;BME280;66057;54.718;18.426;2023-04-25T06:40:28;100153.91;;;8.02;89.55
77106;BME280;66057;54.718;18.426;2023-04-25T06:42:54;100150.47;;;8.01;89.41
77106;BME280;66057;54.718;18.426;2023-04-25T06:45:19;100154.72;;;8.01;89.11
77106;BME280;66057;54.718;18.426;2023-04-25T06:47:45;100151.41;;;8.03;89.67
77106;BME280;66057;54.718;18.426;2023-04-25T06:50:11;100147.16;;;8.04;89.25
77106;BME280;66057;54.718;18.426;2023-04-25T06:52:36;100138.69;;;8.05;89.64
77106;BME280;66057;54.718;18.426;2023-04-25T06:55:02;100157.53;;;8.07;89.30
77106;BME280;66057;54.718;18.426;2023-04-25T06:57:28;100151.34;;;8.02;89.47
77106;BME280;66057;54.718;18.426;2023-04-25T06:59:54;100158.91;;;7.99;89.66
77106;BME280;66057;54.718;18.426;2023-04-25T07:02:19;100157.94;;;7.97;89.78
77106;BME280;66057;54.718;18.426;2023-04-25T07:04:47;100159.50;;;7.93;90.10
77106;BME280;66057;54.718;18.426;2023-04-25T07:07:12;100162.84;;;7.91;90.31
77106;BME280;66057;54.718;18.426;2023-04-25T07:09:38;100173.19;;;7.94;89.97
77106;BME280;66057;54.718;18.426;2023-04-25T07:12:04;100162.25;;;7.98;90.54
77106;BME280;66057;54.718;18.426;2023-04-25T07:14:30;100151.47;;;8.05;90.20
77106;BME280;66057;54.718;18.426;2023-04-25T07:16:55;100149.91;;;8.08;91.23
77106;BME280;66057;54.718;18.426;2023-04-25T07:19:22;100151.59;;;8.08;91.13
77106;BME280;66057;54.718;18.426;2023-04-25T07:21:52;100155.09;;;8.10;89.95
77106;BME280;66057;54.718;18.426;2023-04-25T07:24:17;100155.59;;;8.22;89.72
77106;BME280;66057;54.718;18.426;2023-04-25T07:26:43;100153.50;;;8.32;90.84
77106;BME280;66057;54.718;18.426;2023-04-25T07:29:09;100154.56;;;8.38;91.00
77106;BME280;66057;54.718;18.426;2023-04-25T07:31:35;100156.59;;;8.46;90.04
77106;BME280;66057;54.718;18.426;2023-04-25T07:34:01;100154.97;;;8.48;89.40
77106;BME280;66057;54.718;18.426;2023-04-25T07:36:26;100163.72;;;8.53;89.45
77106;BME280;66057;54.718;18.426;2023-04-25T07:38:52;100162.56;;;8.67;89.53
77106;BME280;66057;54.718;18.426;2023-04-25T07:41:18;100169.72;;;8.76;88.60
77106;BME280;66057;54.718;18.426;2023-04-25T07:43:43;100168.94;;;8.79;88.68
77106;BME280;66057;54.718;18.426;2023-04-25T07:46:09;100166.69;;;8.86;88.17
77106;BME280;66057;54.718;18.426;2023-04-25T07:48:35;100164.53;;;8.97;87.54
77106;BME280;66057;54.718;18.426;2023-04-25T07:51:00;100164.00;;;9.05;87.29
77106;BME280;66057;54.718;18.426;2023-04-25T07:53:34;100172.19;;;9.19;87.37
77106;BME280;66057;54.718;18.426;2023-04-25T07:56:03;100178.47;;;9.27;86.84
77106;BME280;66057;54.718;18.426;2023-04-25T07:58:28;100172.19;;;9.19;85.23
77106;BME280;66057;54.718;18.426;2023-04-25T08:00:54;100181.31;;;9.11;85.40
77106;BME280;66057;54.718;18.426;2023-04-25T08:03:21;100183.75;;;9.08;85.18
77106;BME280;66057;54.718;18.426;2023-04-25T08:05:46;100188.78;;;9.05;84.76
77106;BME280;66057;54.718;18.426;2023-04-25T08:08:12;100185.50;;;9.09;85.31
77106;BME280;66057;54.718;18.426;2023-04-25T08:10:38;100194.22;;;9.14;85.02
77106;BME280;66057;54.718;18.426;2023-04-25T08:13:03;100187.53;;;9.17;84.99
77106;BME280;66057;54.718;18.426;2023-04-25T08:15:29;100191.22;;;9.26;85.19
77106;BME280;66057;54.718;18.426;2023-04-25T08:17:55;100192.00;;;9.23;85.19
77106;BME280;66057;54.718;18.426;2023-04-25T08:20:21;100194.84;;;9.31;85.19
77106;BME280;66057;54.718;18.426;2023-04-25T08:22:46;100198.44;;;9.36;84.75
77106;BME280;66057;54.718;18.426;2023-04-25T08:25:14;100203.81;;;9.42;84.45
77106;BME280;66057;54.718;18.426;2023-04-25T08:27:39;100215.88;;;9.44;83.42
77106;BME280;66057;54.718;18.426;2023-04-25T08:30:08;100206.44;;;9.43;83.83
77106;BME280;66057;54.718;18.426;2023-04-25T08:32:34;100189.56;;;9.50;83.68
77106;BME280;66057;54.718;18.426;2023-04-25T08:34:59;100209.66;;;9.61;83.97
77106;BME280;66057;54.718;18.426;2023-04-25T08:37:25;100204.91;;;9.72;84.33
77106;BME280;66057;54.718;18.426;2023-04-25T08:39:51;100199.94;;;9.77;84.39
77106;BME280;66057;54.718;18.426;2023-04-25T08:42:21;100214.78;;;9.85;84.70
77106;BME280;66057;54.718;18.426;2023-04-25T08:44:48;100212.38;;;9.90;84.53
77106;BME280;66057;54.718;18.426;2023-04-25T08:47:13;100224.28;;;9.88;84.70
77106;BME280;66057;54.718;18.426;2023-04-25T08:49:43;100226.56;;;9.80;84.77
77106;BME280;66057;54.718;18.426;2023-04-25T08:52:11;100227.22;;;9.75;85.25
77106;BME280;66057;54.718;18.426;2023-04-25T08:54:42;100244.63;;;9.59;83.91
77106;BME280;66057;54.718;18.426;2023-04-25T08:57:09;100237.22;;;9.43;84.16
77106;BME280;66057;54.718;18.426;2023-04-25T08:59:36;100237.47;;;9.27;84.42
77106;BME280;66057;54.718;18.426;2023-04-25T09:02:03;100237.94;;;9.17;84.84
77106;BME280;66057;54.718;18.426;2023-04-25T09:04:32;100250.16;;;9.02;85.07
77106;BME280;66057;54.718;18.426;2023-04-25T09:06:57;100257.50;;;8.93;84.93
77106;BME280;66057;54.718;18.426;2023-04-25T09:09:24;100261.81;;;8.94;84.79
77106;BME280;66057;54.718;18.426;2023-04-25T09:11:50;100265.34;;;8.97;84.79
77106;BME280;66057;54.718;18.426;2023-04-25T09:14:20;100260.75;;;8.89;84.67
77106;BME280;66057;54.718;18.426;2023-04-25T09:19:32;100275.25;;;8.88;84.57
77106;BME280;66057;54.718;18.426;2023-04-25T09:22:00;100273.72;;;8.92;84.85
77106;BME280;66057;54.718;18.426;2023-04-25T09:24:33;100276.03;;;9.08;84.58
77106;BME280;66057;54.718;18.426;2023-04-25T09:26:59;100285.31;;;9.27;84.27
77106;BME280;66057;54.718;18.426;2023-04-25T09:29:39;100278.78;;;9.57;83.46
77106;BME280;66057;54.718;18.426;2023-04-25T09:32:26;100290.47;;;9.96;82.36
77106;BME280;66057;54.718;18.426;2023-04-25T09:34:56;100285.97;;;10.15;81.77
77106;BME280;66057;54.718;18.426;2023-04-25T09:37:28;100279.59;;;10.27;80.98
77106;BME280;66057;54.718;18.426;2023-04-25T09:39:56;100282.00;;;10.23;80.09
77106;BME280;66057;54.718;18.426;2023-04-25T09:42:25;100287.94;;;10.20;80.14
77106;BME280;66057;54.718;18.426;2023-04-25T09:44:53;100283.50;;;10.16;80.60
77106;BME280;66057;54.718;18.426;2023-04-25T09:47:19;100281.66;;;10.37;80.91
77106;BME280;66057;54.718;18.426;2023-04-25T09:49:47;100284.00;;;10.31;80.71
77106;BME280;66057;54.718;18.426;2023-04-25T09:52:19;100288.31;;;10.31;80.52
77106;BME280;66057;54.718;18.426;2023-04-25T09:54:46;100294.25;;;10.30;80.53
77106;BME280;66057;54.718;18.426;2023-04-25T09:57:23;100294.50;;;10.37;80.65
77106;BME280;66057;54.718;18.426;2023-04-25T09:59:53;100296.09;;;10.34;79.56
77106;BME280;66057;54.718;18.426;2023-04-25T10:02:21;100292.81;;;10.38;80.09
77106;BME280;66057;54.718;18.426;2023-04-25T10:04:49;100298.41;;;10.52;79.22
77106;BME280;66057;54.718;18.426;2023-04-25T10:07:16;100291.94;;;10.63;78.20
77106;BME280;66057;54.718;18.426;2023-04-25T10:09:47;100283.41;;;10.64;77.69
77106;BME280;66057;54.718;18.426;2023-04-25T10:12:12;100290.41;;;10.68;77.51
77106;BME280;66057;54.718;18.426;2023-04-25T10:14:38;100298.16;;;10.69;76.50
77106;BME280;66057;54.718;18.426;2023-04-25T10:17:05;100305.03;;;10.70;76.32
77106;BME280;66057;54.718;18.426;2023-04-25T10:19:31;100307.59;;;10.70;76.23
77106;BME280;66057;54.718;18.426;2023-04-25T10:22:16;100311.88;;;10.70;76.63
77106;BME280;66057;54.718;18.426;2023-04-25T10:24:44;100312.34;;;10.58;77.33
77106;BME280;66057;54.718;18.426;2023-04-25T10:27:12;100319.22;;;10.10;78.91
77106;BME280;66057;54.718;18.426;2023-04-25T10:29:38;100309.59;;;9.81;79.34
77106;BME280;66057;54.718;18.426;2023-04-25T10:32:04;100311.19;;;9.77;79.18
77106;BME280;66057;54.718;18.426;2023-04-25T10:34:43;100306.22;;;9.82;79.70
77106;BME280;66057;54.718;18.426;2023-04-25T10:37:12;100328.13;;;9.96;79.87
77106;BME280;66057;54.718;18.426;2023-04-25T10:39:41;100327.94;;;9.91;78.48
77106;BME280;66057;54.718;18.426;2023-04-25T10:42:08;100330.47;;;9.90;78.91
77106;BME280;66057;54.718;18.426;2023-04-25T10:44:34;100324.34;;;9.86;79.22
77106;BME280;66057;54.718;18.426;2023-04-25T10:47:02;100330.69;;;9.96;79.63
77106;BME280;66057;54.718;18.426;2023-04-25T10:49:36;100337.50;;;9.95;78.88
77106;BME280;66057;54.718;18.426;2023-04-25T10:54:46;100333.09;;;9.91;78.54
77106;BME280;66057;54.718;18.426;2023-04-25T10:57:31;100349.81;;;10.04;78.46
77106;BME280;66057;54.718;18.426;2023-04-25T11:00:06;100334.31;;;10.02;78.47
77106;BME280;66057;54.718;18.426;2023-04-25T11:02:44;100330.94;;;10.26;78.27
77106;BME280;66057;54.718;18.426;2023-04-25T11:05:20;100330.59;;;10.40;77.68
77106;BME280;66057;54.718;18.426;2023-04-25T11:07:51;100334.28;;;10.48;74.24
77106;BME280;66057;54.718;18.426;2023-04-25T11:10:18;100336.75;;;10.45;74.18
77106;BME280;66057;54.718;18.426;2023-04-25T11:12:45;100321.44;;;10.48;74.22
77106;BME280;66057;54.718;18.426;2023-04-25T11:15:11;100329.00;;;10.44;74.79
77106;BME280;66057;54.718;18.426;2023-04-25T11:17:36;100340.94;;;10.67;73.08
77106;BME280;66057;54.718;18.426;2023-04-25T11:20:02;100328.66;;;10.85;73.00
77106;BME280;66057;54.718;18.426;2023-04-25T11:22:33;100329.41;;;11.08;73.41
77106;BME280;66057;54.718;18.426;2023-04-25T11:25:04;100335.72;;;11.18;73.20
77106;BME280;66057;54.718;18.426;2023-04-25T11:27:30;100332.47;;;11.23;72.27
77106;BME280;66057;54.718;18.426;2023-04-25T11:29:56;100336.44;;;11.14;71.58
77106;BME280;66057;54.718;18.426;2023-04-25T11:32:21;100324.84;;;11.00;71.33
77106;BME280;66057;54.718;18.426;2023-04-25T11:34:47;100335.56;;;11.13;70.81
77106;BME280;66057;54.718;18.426;2023-04-25T11:37:13;100332.53;;;10.98;70.15
77106;BME280;66057;54.718;18.426;2023-04-25T11:39:42;100346.88;;;11.18;71.05
77106;BME280;66057;54.718;18.426;2023-04-25T11:42:08;100338.78;;;11.06;69.45
77106;BME280;66057;54.718;18.426;2023-04-25T11:44:34;100344.53;;;10.99;70.96
77106;BME280;66057;54.718;18.426;2023-04-25T11:47:00;100347.97;;;10.98;70.46
77106;BME280;66057;54.718;18.426;2023-04-25T11:49:30;100344.31;;;10.91;69.91
77106;BME280;66057;54.718;18.426;2023-04-25T11:51:56;100347.25;;;11.04;70.31
77106;BME280;66057;54.718;18.426;2023-04-25T11:54:22;100343.28;;;11.13;69.18
77106;BME280;66057;54.718;18.426;2023-04-25T11:56:48;100345.19;;;10.92;69.18
77106;BME280;66057;54.718;18.426;2023-04-25T11:59:14;100346.38;;;11.03;69.77
77106;BME280;66057;54.718;18.426;2023-04-25T12:01:41;100341.84;;;11.21;70.09
77106;BME280;66057;54.718;18.426;2023-04-25T12:04:15;100340.84;;;11.18;70.34
77106;BME280;66057;54.718;18.426;2023-04-25T12:06:43;100347.28;;;11.30;69.62
77106;BME280;66057;54.718;18.426;2023-04-25T12:09:11;100344.41;;;11.21;69.98
77106;BME280;66057;54.718;18.426;2023-04-25T12:11:45;100347.66;;;11.16;70.11
77106;BME280;66057;54.718;18.426;2023-04-25T12:14:12;100346.88;;;11.18;70.18
77106;BME280;66057;54.718;18.426;2023-04-25T12:16:44;100350.72;;;11.04;69.35
77106;BME280;66057;54.718;18.426;2023-04-25T12:19:13;100350.19;;;11.14;69.89
77106;BME280;66057;54.718;18.426;2023-04-25T12:21:39;100352.53;;;11.07;69.63
77106;BME280;66057;54.718;18.426;2023-04-25T12:24:15;100357.41;;;10.99;69.18
77106;BME280;66057;54.718;18.426;2023-04-25T12:26:51;100357.41;;;10.99;68.85
77106;BME280;66057;54.718;18.426;2023-04-25T12:29:19;100362.47;;;10.96;69.30
77106;BME280;66057;54.718;18.426;2023-04-25T12:31:46;100357.47;;;11.01;69.96
77106;BME280;66057;54.718;18.426;2023-04-25T12:34:12;100353.47;;;11.10;69.14
77106;BME280;66057;54.718;18.426;2023-04-25T12:36:37;100346.72;;;11.14;70.05
77106;BME280;66057;54.718;18.426;2023-04-25T12:39:04;100350.91;;;11.10;70.28
77106;BME280;66057;54.718;18.426;2023-04-25T12:41:30;100352.41;;;11.04;68.96
77106;BME280;66057;54.718;18.426;2023-04-25T12:43:56;100364.94;;;11.20;69.24
77106;BME280;66057;54.718;18.426;2023-04-25T12:46:22;100359.56;;;11.12;68.57
77106;BME280;66057;54.718;18.426;2023-04-25T12:48:48;100361.72;;;11.00;68.37
77106;BME280;66057;54.718;18.426;2023-04-25T12:51:14;100363.56;;;10.77;68.99
77106;BME280;66057;54.718;18.426;2023-04-25T12:53:41;100376.81;;;10.64;68.43